sensor_id;sensor_type;location;lat;lon;timestamp;temperature;humidity
15483;DHT22;7843;50.330;7.312;2023-02-13T00:00:13;7.00;99.90
15483;DHT22;7843;50.330;7.312;2023-02-13T00:02:41;7.00;99.90
15483;DHT22;7843;50.330;7.312;2023-02-13T00:05:08;7.00;99.90
15483;DHT22;7843;50.330;7.312;2023-02-13T00:07:34;7.00;99.90
15483;DHT22;7843;50.330;7.312;2023-02-13T00:10:01;7.00;99.90
15483;DHT22;7843;50.330;7.312;2023-02-13T00:12:28;7.00;99.90
15483;DHT22;7843;50.330;7.312;2023-02-13T00:14:54;7.00;99.90
15483;DHT22;7843;50.330;7.312;2023-02-13T00:17:21;7.00;99.90
15483;DHT22;7843;50.330;7.312;2023-02-13T00:19:48;7.00;99.90
15483;DHT22;7843;50.330;7.312;2023-02-13T00:22:14;7.00;99.90
15483;DHT22;7843;50.330;7.312;2023-02-13T00:24:42;6.90;99.90
15483;DHT22;7843;50.330;7.312;2023-02-13T00:27:09;6.90;99.90
15483;DHT22;7843;50.330;7.312;2023-02-13T00:29:36;6.90;99.90
15483;DHT22;7843;50.330;7.312;2023-02-13T00:32:02;6.90;99.90
15483;DHT22;7843;50.330;7.312;2023-02-13T00:34:29;6.90;99.90
15483;DHT22;7843;50.330;7.312;2023-02-13T00:36:56;6.90;99.90
15483;DHT22;7843;50.330;7.312;2023-02-13T00:39:22;6.90;99.90
15483;DHT22;7843;50.330;7.312;2023-02-13T00:41:49;6.90;99.90
15483;DHT22;7843;50.330;7.312;2023-02-13T00:44:16;6.90;99.90
15483;DHT22;7843;50.330;7.312;2023-02-13T00:46:42;6.90;99.90
15483;DHT22;7843;50.330;7.312;2023-02-13T00:49:09;6.90;99.90
15483;DHT22;7843;50.330;7.312;2023-02-13T00:51:36;6.90;99.90
15483;DHT22;7843;50.330;7.312;2023-02-13T00:54:02;6.90;99.90
15483;DHT22;7843;50.330;7.312;2023-02-13T00:56:29;6.90;99.90
15483;DHT22;7843;50.330;7.312;2023-02-13T00:58:59;6.80;99.90
15483;DHT22;7843;50.330;7.312;2023-02-13T01:01:25;6.80;99.90
15483;DHT22;7843;50.330;7.312;2023-02-13T01:03:52;6.80;99.90
15483;DHT22;7843;50.330;7.312;2023-02-13T01:06:19;6.80;99.90
15483;DHT22;7843;50.330;7.312;2023-02-13T01:08:46;6.80;99.90
15483;DHT22;7843;50.330;7.312;2023-02-13T01:11:12;6.80;99.90
15483;DHT22;7843;50.330;7.312;2023-02-13T01:13:39;6.80;99.90
15483;DHT22;7843;50.330;7.312;2023-02-13T01:16:06;6.80;99.90
15483;DHT22;7843;50.330;7.312;2023-02-13T01:18:33;6.80;99.90
15483;DHT22;7843;50.330;7.312;2023-02-13T01:21:07;6.80;99.90
15483;DHT22;7843;50.330;7.312;2023-02-13T01:23:36;6.80;99.90
15483;DHT22;7843;50.330;7.312;2023-02-13T01:26:04;6.80;99.90
15483;DHT22;7843;50.330;7.312;2023-02-13T01:28:31;6.80;99.90
15483;DHT22;7843;50.330;7.312;2023-02-13T01:30:58;6.80;99.90
15483;DHT22;7843;50.330;7.312;2023-02-13T01:33:27;6.80;99.90
15483;DHT22;7843;50.330;7.312;2023-02-13T01:35:54;6.80;99.90
15483;DHT22;7843;50.330;7.312;2023-02-13T01:38:21;6.80;99.90
15483;DHT22;7843;50.330;7.312;2023-02-13T01:40:50;6.80;99.90
15483;DHT22;7843;50.330;7.312;2023-02-13T01:43:17;6.80;99.90
15483;DHT22;7843;50.330;7.312;2023-02-13T01:45:48;6.80;99.90
15483;DHT22;7843;50.330;7.312;2023-02-13T01:48:20;6.90;99.90
15483;DHT22;7843;50.330;7.312;2023-02-13T01:51:07;6.90;99.90
15483;DHT22;7843;50.330;7.312;2023-02-13T01:56:17;6.80;99.90
15483;DHT22;7843;50.330;7.312;2023-02-13T01:58:48;6.80;99.90
15483;DHT22;7843;50.330;7.312;2023-02-13T02:01:16;6.80;99.90
15483;DHT22;7843;50.330;7.312;2023-02-13T02:03:59;6.90;99.90
15483;DHT22;7843;50.330;7.312;2023-02-13T02:06:32;6.80;99.90
15483;DHT22;7843;50.330;7.312;2023-02-13T02:09:07;6.90;99.90
15483;DHT22;7843;50.330;7.312;2023-02-13T02:14:26;6.90;99.90
15483;DHT22;7843;50.330;7.312;2023-02-13T02:16:53;6.80;99.90
15483;DHT22;7843;50.330;7.312;2023-02-13T02:44:15;6.80;99.90
15483;DHT22;7843;50.330;7.312;2023-02-13T02:46:52;6.80;99.90
15483;DHT22;7843;50.330;7.312;2023-02-13T02:49:41;6.70;99.90
15483;DHT22;7843;50.330;7.312;2023-02-13T02:55:34;6.70;99.90
15483;DHT22;7843;50.330;7.312;2023-02-13T03:01:08;6.60;99.90
15483;DHT22;7843;50.330;7.312;2023-02-13T03:03:56;6.60;99.90
15483;DHT22;7843;50.330;7.312;2023-02-13T03:06:56;6.60;99.90
15483;DHT22;7843;50.330;7.312;2023-02-13T03:09:29;6.60;99.90
15483;DHT22;7843;50.330;7.312;2023-02-13T03:12:21;6.60;99.90
15483;DHT22;7843;50.330;7.312;2023-02-13T03:15:08;6.60;99.90
15483;DHT22;7843;50.330;7.312;2023-02-13T03:17:35;6.60;99.90
15483;DHT22;7843;50.330;7.312;2023-02-13T03:20:46;6.60;99.90
15483;DHT22;7843;50.330;7.312;2023-02-13T03:23:45;6.60;99.90
15483;DHT22;7843;50.330;7.312;2023-02-13T03:30:12;6.60;99.90
15483;DHT22;7843;50.330;7.312;2023-02-13T03:38:24;6.50;99.90
15483;DHT22;7843;50.330;7.312;2023-02-13T03:40:58;6.50;99.90
15483;DHT22;7843;50.330;7.312;2023-02-13T03:43:59;6.50;99.90
15483;DHT22;7843;50.330;7.312;2023-02-13T03:46:32;6.50;99.90
15483;DHT22;7843;50.330;7.312;2023-02-13T03:49:03;6.50;99.90
15483;DHT22;7843;50.330;7.312;2023-02-13T03:51:55;6.50;99.90
15483;DHT22;7843;50.330;7.312;2023-02-13T03:54:34;6.50;99.90
15483;DHT22;7843;50.330;7.312;2023-02-13T03:57:23;6.50;99.90
15483;DHT22;7843;50.330;7.312;2023-02-13T04:00:12;6.50;99.90
15483;DHT22;7843;50.330;7.312;2023-02-13T04:02:50;6.50;99.90
15483;DHT22;7843;50.330;7.312;2023-02-13T04:05:21;6.40;99.90
15483;DHT22;7843;50.330;7.312;2023-02-13T04:07:49;6.40;99.90
15483;DHT22;7843;50.330;7.312;2023-02-13T04:10:17;6.40;99.90
15483;DHT22;7843;50.330;7.312;2023-02-13T04:13:09;6.40;99.90
15483;DHT22;7843;50.330;7.312;2023-02-13T04:15:47;6.40;99.90
15483;DHT22;7843;50.330;7.312;2023-02-13T04:18:27;6.30;99.90
15483;DHT22;7843;50.330;7.312;2023-02-13T04:20:55;6.30;99.90
15483;DHT22;7843;50.330;7.312;2023-02-13T04:23:22;6.30;99.90
15483;DHT22;7843;50.330;7.312;2023-02-13T04:25:51;6.20;99.90
15483;DHT22;7843;50.330;7.312;2023-02-13T04:28:19;6.20;99.90
15483;DHT22;7843;50.330;7.312;2023-02-13T04:30:46;6.10;99.90
15483;DHT22;7843;50.330;7.312;2023-02-13T04:33:12;6.10;99.90
15483;DHT22;7843;50.330;7.312;2023-02-13T04:35:39;6.00;99.90
15483;DHT22;7843;50.330;7.312;2023-02-13T04:38:06;5.90;99.90
15483;DHT22;7843;50.330;7.312;2023-02-13T04:40:33;5.80;99.90
15483;DHT22;7843;50.330;7.312;2023-02-13T04:42:59;5.80;99.90
15483;DHT22;7843;50.330;7.312;2023-02-13T04:45:26;5.70;99.90
15483;DHT22;7843;50.330;7.312;2023-02-13T04:47:54;5.60;99.90
15483;DHT22;7843;50.330;7.312;2023-02-13T04:50:22;5.60;99.90
15483;DHT22;7843;50.330;7.312;2023-02-13T04:52:56;5.50;99.90
15483;DHT22;7843;50.330;7.312;2023-02-13T04:55:24;5.50;99.90
15483;DHT22;7843;50.330;7.312;2023-02-13T04:57:52;5.50;99.90
15483;DHT22;7843;50.330;7.312;2023-02-13T05:00:21;5.50;99.90
15483;DHT22;7843;50.330;7.312;2023-02-13T05:02:48;5.40;99.90
15483;DHT22;7843;50.330;7.312;2023-02-13T05:05:15;5.40;99.90
15483;DHT22;7843;50.330;7.312;2023-02-13T05:07:42;5.40;99.90
15483;DHT22;7843;50.330;7.312;2023-02-13T05:10:10;5.40;99.90
15483;DHT22;7843;50.330;7.312;2023-02-13T05:12:37;5.40;99.90
15483;DHT22;7843;50.330;7.312;2023-02-13T05:15:05;5.40;99.90
15483;DHT22;7843;50.330;7.312;2023-02-13T05:17:31;5.30;99.90
15483;DHT22;7843;50.330;7.312;2023-02-13T05:19:58;5.30;99.90
15483;DHT22;7843;50.330;7.312;2023-02-13T05:22:25;5.30;99.90
15483;DHT22;7843;50.330;7.312;2023-02-13T05:25:10;5.20;99.90
15483;DHT22;7843;50.330;7.312;2023-02-13T05:27:37;5.10;99.90
15483;DHT22;7843;50.330;7.312;2023-02-13T05:30:04;5.00;99.90
15483;DHT22;7843;50.330;7.312;2023-02-13T05:32:31;4.90;99.90
15483;DHT22;7843;50.330;7.312;2023-02-13T05:34:58;4.80;99.90
15483;DHT22;7843;50.330;7.312;2023-02-13T05:37:24;4.60;99.90
15483;DHT22;7843;50.330;7.312;2023-02-13T05:39:51;4.50;99.90
15483;DHT22;7843;50.330;7.312;2023-02-13T05:42:18;4.40;99.90
15483;DHT22;7843;50.330;7.312;2023-02-13T05:44:44;4.20;99.90
15483;DHT22;7843;50.330;7.312;2023-02-13T05:47:11;4.10;99.90
15483;DHT22;7843;50.330;7.312;2023-02-13T05:49:37;4.00;99.90
15483;DHT22;7843;50.330;7.312;2023-02-13T05:52:04;3.80;99.90
15483;DHT22;7843;50.330;7.312;2023-02-13T05:54:31;3.60;99.90
15483;DHT22;7843;50.330;7.312;2023-02-13T05:56:57;3.60;99.90
15483;DHT22;7843;50.330;7.312;2023-02-13T05:59:24;3.60;99.90
15483;DHT22;7843;50.330;7.312;2023-02-13T06:01:51;3.40;99.90
15483;DHT22;7843;50.330;7.312;2023-02-13T06:04:18;3.40;99.90
15483;DHT22;7843;50.330;7.312;2023-02-13T06:06:44;3.40;99.90
15483;DHT22;7843;50.330;7.312;2023-02-13T06:09:11;3.30;99.90
15483;DHT22;7843;50.330;7.312;2023-02-13T06:11:38;3.30;99.90
15483;DHT22;7843;50.330;7.312;2023-02-13T06:14:05;3.30;99.90
15483;DHT22;7843;50.330;7.312;2023-02-13T06:16:31;3.20;99.90
15483;DHT22;7843;50.330;7.312;2023-02-13T06:18:58;3.20;99.90
15483;DHT22;7843;50.330;7.312;2023-02-13T06:21:25;3.20;99.90
15483;DHT22;7843;50.330;7.312;2023-02-13T06:23:52;3.20;99.90
15483;DHT22;7843;50.330;7.312;2023-02-13T06:26:18;3.10;99.90
15483;DHT22;7843;50.330;7.312;2023-02-13T06:28:45;3.10;99.90
15483;DHT22;7843;50.330;7.312;2023-02-13T06:31:12;3.10;99.90
15483;DHT22;7843;50.330;7.312;2023-02-13T06:33:38;3.10;99.90
15483;DHT22;7843;50.330;7.312;2023-02-13T06:36:05;3.10;99.90
15483;DHT22;7843;50.330;7.312;2023-02-13T06:38:32;3.10;99.90
15483;DHT22;7843;50.330;7.312;2023-02-13T06:41:00;3.10;99.90
15483;DHT22;7843;50.330;7.312;2023-02-13T06:43:30;3.00;99.90
15483;DHT22;7843;50.330;7.312;2023-02-13T06:45:56;3.00;99.90
15483;DHT22;7843;50.330;7.312;2023-02-13T06:48:24;3.00;99.90
15483;DHT22;7843;50.330;7.312;2023-02-13T06:50:50;2.90;99.90
15483;DHT22;7843;50.330;7.312;2023-02-13T06:53:18;2.90;99.90
15483;DHT22;7843;50.330;7.312;2023-02-13T06:55:53;2.80;99.90
15483;DHT22;7843;50.330;7.312;2023-02-13T06:58:21;2.80;99.90
15483;DHT22;7843;50.330;7.312;2023-02-13T07:00:49;2.80;99.90
15483;DHT22;7843;50.330;7.312;2023-02-13T07:03:16;2.70;99.90
15483;DHT22;7843;50.330;7.312;2023-02-13T07:05:44;2.70;99.90
15483;DHT22;7843;50.330;7.312;2023-02-13T07:08:11;2.70;99.90
15483;DHT22;7843;50.330;7.312;2023-02-13T07:10:39;2.70;99.90
15483;DHT22;7843;50.330;7.312;2023-02-13T07:13:07;2.80;99.90
15483;DHT22;7843;50.330;7.312;2023-02-13T07:15:34;2.80;99.90
15483;DHT22;7843;50.330;7.312;2023-02-13T07:18:03;2.80;99.90
15483;DHT22;7843;50.330;7.312;2023-02-13T07:20:30;2.80;99.90
15483;DHT22;7843;50.330;7.312;2023-02-13T07:23:01;2.90;99.90
15483;DHT22;7843;50.330;7.312;2023-02-13T07:25:28;2.80;99.90
15483;DHT22;7843;50.330;7.312;2023-02-13T07:28:00;2.90;99.90
15483;DHT22;7843;50.330;7.312;2023-02-13T07:30:27;2.90;99.90
15483;DHT22;7843;50.330;7.312;2023-02-13T07:33:00;3.00;99.90
15483;DHT22;7843;50.330;7.312;2023-02-13T07:35:27;3.00;99.90
15483;DHT22;7843;50.330;7.312;2023-02-13T07:37:55;3.10;99.90
15483;DHT22;7843;50.330;7.312;2023-02-13T07:40:22;3.10;99.90
15483;DHT22;7843;50.330;7.312;2023-02-13T07:42:48;3.20;99.90
15483;DHT22;7843;50.330;7.312;2023-02-13T07:45:15;3.20;99.90
15483;DHT22;7843;50.330;7.312;2023-02-13T07:47:42;3.30;99.90
15483;DHT22;7843;50.330;7.312;2023-02-13T07:50:09;3.30;99.90
15483;DHT22;7843;50.330;7.312;2023-02-13T07:52:36;3.40;99.90
15483;DHT22;7843;50.330;7.312;2023-02-13T07:55:04;3.50;99.90
15483;DHT22;7843;50.330;7.312;2023-02-13T07:57:31;3.50;99.90
15483;DHT22;7843;50.330;7.312;2023-02-13T07:59:58;3.60;99.90
15483;DHT22;7843;50.330;7.312;2023-02-13T08:02:25;3.60;99.90
15483;DHT22;7843;50.330;7.312;2023-02-13T08:04:51;3.70;99.90
15483;DHT22;7843;50.330;7.312;2023-02-13T08:07:18;3.80;99.90
15483;DHT22;7843;50.330;7.312;2023-02-13T08:09:45;3.80;99.90
15483;DHT22;7843;50.330;7.312;2023-02-13T08:12:31;3.90;99.90
15483;DHT22;7843;50.330;7.312;2023-02-13T08:15:00;4.00;99.90
15483;DHT22;7843;50.330;7.312;2023-02-13T08:17:27;4.10;99.90
15483;DHT22;7843;50.330;7.312;2023-02-13T08:19:53;4.20;99.90
15483;DHT22;7843;50.330;7.312;2023-02-13T08:22:20;4.20;99.90
15483;DHT22;7843;50.330;7.312;2023-02-13T08:24:47;4.30;99.90
15483;DHT22;7843;50.330;7.312;2023-02-13T08:27:14;4.40;99.90
15483;DHT22;7843;50.330;7.312;2023-02-13T08:29:41;4.40;99.90
15483;DHT22;7843;50.330;7.312;2023-02-13T08:32:08;4.50;99.90
15483;DHT22;7843;50.330;7.312;2023-02-13T08:34:34;4.60;99.90
15483;DHT22;7843;50.330;7.312;2023-02-13T08:37:02;4.60;99.90
15483;DHT22;7843;50.330;7.312;2023-02-13T08:39:29;4.70;99.90
15483;DHT22;7843;50.330;7.312;2023-02-13T08:41:55;4.70;99.90
15483;DHT22;7843;50.330;7.312;2023-02-13T08:44:22;4.80;99.90
15483;DHT22;7843;50.330;7.312;2023-02-13T08:46:49;4.90;99.90
15483;DHT22;7843;50.330;7.312;2023-02-13T08:49:15;4.90;99.90
15483;DHT22;7843;50.330;7.312;2023-02-13T08:51:42;5.00;99.90
15483;DHT22;7843;50.330;7.312;2023-02-13T08:54:09;5.00;99.90
15483;DHT22;7843;50.330;7.312;2023-02-13T08:56:35;5.10;99.90
15483;DHT22;7843;50.330;7.312;2023-02-13T08:59:02;5.10;99.90
15483;DHT22;7843;50.330;7.312;2023-02-13T09:01:29;5.20;99.90
15483;DHT22;7843;50.330;7.312;2023-02-13T09:03:55;5.20;99.90
15483;DHT22;7843;50.330;7.312;2023-02-13T09:06:22;5.30;99.90
15483;DHT22;7843;50.330;7.312;2023-02-13T09:08:54;5.40;99.90
15483;DHT22;7843;50.330;7.312;2023-02-13T09:11:21;5.40;99.90
15483;DHT22;7843;50.330;7.312;2023-02-13T09:13:51;5.50;99.90
15483;DHT22;7843;50.330;7.312;2023-02-13T09:16:18;5.50;99.90
15483;DHT22;7843;50.330;7.312;2023-02-13T09:18:47;5.60;99.90
15483;DHT22;7843;50.330;7.312;2023-02-13T09:21:14;5.60;99.90
15483;DHT22;7843;50.330;7.312;2023-02-13T09:23:41;5.70;99.90
15483;DHT22;7843;50.330;7.312;2023-02-13T09:26:10;5.80;99.90
15483;DHT22;7843;50.330;7.312;2023-02-13T09:28:38;5.90;99.90
15483;DHT22;7843;50.330;7.312;2023-02-13T09:31:10;5.90;99.90
15483;DHT22;7843;50.330;7.312;2023-02-13T09:33:37;6.00;99.90
15483;DHT22;7843;50.330;7.312;2023-02-13T09:36:10;6.00;99.90
15483;DHT22;7843;50.330;7.312;2023-02-13T09:38:37;6.10;99.90
15483;DHT22;7843;50.330;7.312;2023-02-13T09:41:19;6.10;99.90
15483;DHT22;7843;50.330;7.312;2023-02-13T09:43:59;6.20;99.90
15483;DHT22;7843;50.330;7.312;2023-02-13T09:46:35;6.30;99.90
15483;DHT22;7843;50.330;7.312;2023-02-13T09:49:16;6.40;99.90
15483;DHT22;7843;50.330;7.312;2023-02-13T09:51:47;6.40;99.90
15483;DHT22;7843;50.330;7.312;2023-02-13T09:54:15;6.50;99.90
15483;DHT22;7843;50.330;7.312;2023-02-13T09:56:55;6.60;99.90
15483;DHT22;7843;50.330;7.312;2023-02-13T10:13:43;6.90;99.90
15483;DHT22;7843;50.330;7.312;2023-02-13T10:16:14;6.90;99.90
15483;DHT22;7843;50.330;7.312;2023-02-13T10:18:44;6.90;99.90
15483;DHT22;7843;50.330;7.312;2023-02-13T10:21:13;6.90;99.90
15483;DHT22;7843;50.330;7.312;2023-02-13T10:23:46;7.00;99.90
15483;DHT22;7843;50.330;7.312;2023-02-13T10:26:21;7.10;99.90
15483;DHT22;7843;50.330;7.312;2023-02-13T10:28:56;7.20;99.90
15483;DHT22;7843;50.330;7.312;2023-02-13T10:32:00;7.30;99.90
15483;DHT22;7843;50.330;7.312;2023-02-13T10:34:33;7.40;99.90
15483;DHT22;7843;50.330;7.312;2023-02-13T10:37:01;7.40;99.90
15483;DHT22;7843;50.330;7.312;2023-02-13T10:39:30;7.30;99.90
15483;DHT22;7843;50.330;7.312;2023-02-13T10:45:02;7.40;99.90
15483;DHT22;7843;50.330;7.312;2023-02-13T11:01:55;7.60;99.90
15483;DHT22;7843;50.330;7.312;2023-02-13T11:04:22;7.70;99.90
15483;DHT22;7843;50.330;7.312;2023-02-13T11:06:59;7.90;99.90
15483;DHT22;7843;50.330;7.312;2023-02-13T11:09:26;8.10;99.90
15483;DHT22;7843;50.330;7.312;2023-02-13T11:11:53;8.20;99.90
15483;DHT22;7843;50.330;7.312;2023-02-13T11:14:22;8.20;99.90
15483;DHT22;7843;50.330;7.312;2023-02-13T11:16:58;8.20;99.80
15483;DHT22;7843;50.330;7.312;2023-02-13T11:24:31;8.60;99.50
15483;DHT22;7843;50.330;7.312;2023-02-13T11:27:04;8.70;99.30
15483;DHT22;7843;50.330;7.312;2023-02-13T11:29:51;8.70;98.50
15483;DHT22;7843;50.330;7.312;2023-02-13T11:32:24;8.70;98.60
15483;DHT22;7843;50.330;7.312;2023-02-13T11:34:51;8.90;98.60
15483;DHT22;7843;50.330;7.312;2023-02-13T11:37:28;9.00;98.30
15483;DHT22;7843;50.330;7.312;2023-02-13T11:39:57;9.10;97.80
15483;DHT22;7843;50.330;7.312;2023-02-13T11:42:34;9.00;97.60
15483;DHT22;7843;50.330;7.312;2023-02-13T11:45:14;9.20;97.90
15483;DHT22;7843;50.330;7.312;2023-02-13T11:47:46;9.30;97.60
15483;DHT22;7843;50.330;7.312;2023-02-13T11:50:35;9.30;97.00
15483;DHT22;7843;50.330;7.312;2023-02-13T11:53:23;9.40;97.00
15483;DHT22;7843;50.330;7.312;2023-02-13T11:56:07;9.40;96.50
15483;DHT22;7843;50.330;7.312;2023-02-13T11:58:35;9.60;97.20
15483;DHT22;7843;50.330;7.312;2023-02-13T12:04:06;9.80;95.70
15483;DHT22;7843;50.330;7.312;2023-02-13T12:06:39;9.80;95.30
15483;DHT22;7843;50.330;7.312;2023-02-13T12:09:11;9.60;95.40
15483;DHT22;7843;50.330;7.312;2023-02-13T12:11:47;9.60;95.80
15483;DHT22;7843;50.330;7.312;2023-02-13T12:14:24;9.60;95.60
15483;DHT22;7843;50.330;7.312;2023-02-13T12:17:06;9.70;96.30
15483;DHT22;7843;50.330;7.312;2023-02-13T12:19:40;9.90;96.00
15483;DHT22;7843;50.330;7.312;2023-02-13T12:25:31;10.10;94.70
15483;DHT22;7843;50.330;7.312;2023-02-13T12:28:23;10.20;94.50
15483;DHT22;7843;50.330;7.312;2023-02-13T12:34:13;10.50;94.10
15483;DHT22;7843;50.330;7.312;2023-02-13T12:36:52;10.40;93.80
15483;DHT22;7843;50.330;7.312;2023-02-13T12:42:37;10.60;94.30
15483;DHT22;7843;50.330;7.312;2023-02-13T12:59:58;10.80;93.70
15483;DHT22;7843;50.330;7.312;2023-02-13T13:02:41;10.80;93.20
15483;DHT22;7843;50.330;7.312;2023-02-13T13:10:40;12.90;89.70
15483;DHT22;7843;50.330;7.312;2023-02-13T13:13:45;15.00;86.00
15483;DHT22;7843;50.330;7.312;2023-02-13T13:16:52;16.70;81.00
15483;DHT22;7843;50.330;7.312;2023-02-13T13:22:18;17.90;74.80
15483;DHT22;7843;50.330;7.312;2023-02-13T13:27:27;18.30;74.30
15483;DHT22;7843;50.330;7.312;2023-02-13T13:30:00;18.70;72.60
15483;DHT22;7843;50.330;7.312;2023-02-13T13:32:29;19.10;71.00
15483;DHT22;7843;50.330;7.312;2023-02-13T13:34:57;19.20;70.70
15483;DHT22;7843;50.330;7.312;2023-02-13T13:37:37;19.30;70.50
15483;DHT22;7843;50.330;7.312;2023-02-13T13:45:49;19.80;69.70
15483;DHT22;7843;50.330;7.312;2023-02-13T13:51:20;20.00;69.20
15483;DHT22;7843;50.330;7.312;2023-02-13T14:07:57;19.30;69.40
15483;DHT22;7843;50.330;7.312;2023-02-13T14:26:20;18.70;71.10
15483;DHT22;7843;50.330;7.312;2023-02-13T14:31:32;18.10;71.30
15483;DHT22;7843;50.330;7.312;2023-02-13T14:36:29;16.90;73.70
15483;DHT22;7843;50.330;7.312;2023-02-13T14:39:06;16.90;74.20
15483;DHT22;7843;50.330;7.312;2023-02-13T14:42:02;16.40;75.70
15483;DHT22;7843;50.330;7.312;2023-02-13T14:44:54;16.00;77.00
15483;DHT22;7843;50.330;7.312;2023-02-13T14:47:36;15.40;78.80
15483;DHT22;7843;50.330;7.312;2023-02-13T14:50:06;14.70;80.20
15483;DHT22;7843;50.330;7.312;2023-02-13T14:52:42;14.10;81.50
15483;DHT22;7843;50.330;7.312;2023-02-13T14:55:32;13.70;83.10
15483;DHT22;7843;50.330;7.312;2023-02-13T15:03:12;12.70;85.90
15483;DHT22;7843;50.330;7.312;2023-02-13T15:05:53;12.50;87.00
15483;DHT22;7843;50.330;7.312;2023-02-13T15:08:25;12.30;87.30
15483;DHT22;7843;50.330;7.312;2023-02-13T15:10:54;12.20;87.60
15483;DHT22;7843;50.330;7.312;2023-02-13T15:13:24;12.00;88.10
15483;DHT22;7843;50.330;7.312;2023-02-13T15:16:04;11.90;88.80
15483;DHT22;7843;50.330;7.312;2023-02-13T15:18:39;11.80;89.40
15483;DHT22;7843;50.330;7.312;2023-02-13T15:21:13;11.70;90.10
15483;DHT22;7843;50.330;7.312;2023-02-13T15:23:40;11.50;90.40
15483;DHT22;7843;50.330;7.312;2023-02-13T15:26:15;11.40;90.80
15483;DHT22;7843;50.330;7.312;2023-02-13T15:28:58;11.30;90.80
15483;DHT22;7843;50.330;7.312;2023-02-13T15:31:29;11.10;91.00
15483;DHT22;7843;50.330;7.312;2023-02-13T15:33:58;11.00;91.40
15483;DHT22;7843;50.330;7.312;2023-02-13T15:36:34;11.00;91.80
15483;DHT22;7843;50.330;7.312;2023-02-13T15:39:04;10.90;92.40
15483;DHT22;7843;50.330;7.312;2023-02-13T15:41:41;10.80;92.90
15483;DHT22;7843;50.330;7.312;2023-02-13T15:44:16;10.70;93.20
15483;DHT22;7843;50.330;7.312;2023-02-13T15:46:47;10.60;93.30
15483;DHT22;7843;50.330;7.312;2023-02-13T15:49:19;10.40;93.70
15483;DHT22;7843;50.330;7.312;2023-02-13T15:51:47;10.20;94.00
15483;DHT22;7843;50.330;7.312;2023-02-13T15:54:29;10.00;94.40
15483;DHT22;7843;50.330;7.312;2023-02-13T15:56:59;9.80;94.80
15483;DHT22;7843;50.330;7.312;2023-02-13T15:59:34;9.70;94.90
15483;DHT22;7843;50.330;7.312;2023-02-13T16:02:03;9.50;95.20
15483;DHT22;7843;50.330;7.312;2023-02-13T16:04:31;9.40;95.40
15483;DHT22;7843;50.330;7.312;2023-02-13T16:06:58;9.30;95.60
15483;DHT22;7843;50.330;7.312;2023-02-13T16:09:33;9.20;95.70
15483;DHT22;7843;50.330;7.312;2023-02-13T16:14:52;8.90;96.10
15483;DHT22;7843;50.330;7.312;2023-02-13T16:17:32;8.80;96.40
15483;DHT22;7843;50.330;7.312;2023-02-13T16:20:07;8.80;96.50
15483;DHT22;7843;50.330;7.312;2023-02-13T16:22:53;8.70;96.60
15483;DHT22;7843;50.330;7.312;2023-02-13T16:25:31;8.50;96.80
15483;DHT22;7843;50.330;7.312;2023-02-13T16:28:01;8.40;97.10
15483;DHT22;7843;50.330;7.312;2023-02-13T16:30:32;8.30;97.10
15483;DHT22;7843;50.330;7.312;2023-02-13T16:35:52;8.10;97.60
15483;DHT22;7843;50.330;7.312;2023-02-13T16:40:53;8.00;98.20
15483;DHT22;7843;50.330;7.312;2023-02-13T16:43:39;7.90;98.40
15483;DHT22;7843;50.330;7.312;2023-02-13T16:46:19;7.90;98.40
15483;DHT22;7843;50.330;7.312;2023-02-13T16:48:59;7.80;98.60
15483;DHT22;7843;50.330;7.312;2023-02-13T16:51:37;7.70;98.70
15483;DHT22;7843;50.330;7.312;2023-02-13T16:56:55;7.50;99.00
15483;DHT22;7843;50.330;7.312;2023-02-13T17:02:37;7.30;98.60
15483;DHT22;7843;50.330;7.312;2023-02-13T17:07:35;7.10;98.40
15483;DHT22;7843;50.330;7.312;2023-02-13T17:10:29;7.00;98.60
15483;DHT22;7843;50.330;7.312;2023-02-13T17:13:11;6.90;98.50
15483;DHT22;7843;50.330;7.312;2023-02-13T17:15:43;6.80;98.50
15483;DHT22;7843;50.330;7.312;2023-02-13T17:18:13;6.80;98.20
15483;DHT22;7843;50.330;7.312;2023-02-13T17:20:41;6.70;98.20
15483;DHT22;7843;50.330;7.312;2023-02-13T17:23:17;6.60;98.30
15483;DHT22;7843;50.330;7.312;2023-02-13T17:25:46;6.50;98.30
15483;DHT22;7843;50.330;7.312;2023-02-13T17:30:47;6.30;98.70
15483;DHT22;7843;50.330;7.312;2023-02-13T17:33:23;6.30;98.60
15483;DHT22;7843;50.330;7.312;2023-02-13T17:35:50;6.20;98.60
15483;DHT22;7843;50.330;7.312;2023-02-13T17:38:17;6.10;98.70
15483;DHT22;7843;50.330;7.312;2023-02-13T17:40:44;6.00;99.00
15483;DHT22;7843;50.330;7.312;2023-02-13T17:43:13;5.90;99.30
15483;DHT22;7843;50.330;7.312;2023-02-13T17:45:41;5.80;99.40
15483;DHT22;7843;50.330;7.312;2023-02-13T17:48:08;5.80;99.70
15483;DHT22;7843;50.330;7.312;2023-02-13T17:50:35;5.80;99.80
15483;DHT22;7843;50.330;7.312;2023-02-13T17:53:04;5.70;99.90
15483;DHT22;7843;50.330;7.312;2023-02-13T17:55:32;5.70;99.90
15483;DHT22;7843;50.330;7.312;2023-02-13T17:58:00;5.70;99.80
15483;DHT22;7843;50.330;7.312;2023-02-13T18:00:29;5.70;99.70
15483;DHT22;7843;50.330;7.312;2023-02-13T18:02:58;5.60;99.80
15483;DHT22;7843;50.330;7.312;2023-02-13T18:05:26;5.60;99.90
15483;DHT22;7843;50.330;7.312;2023-02-13T18:07:53;5.60;99.90
15483;DHT22;7843;50.330;7.312;2023-02-13T18:10:23;5.50;99.90
15483;DHT22;7843;50.330;7.312;2023-02-13T18:12:51;5.50;99.90
15483;DHT22;7843;50.330;7.312;2023-02-13T18:15:18;5.40;99.90
15483;DHT22;7843;50.330;7.312;2023-02-13T18:17:45;5.30;99.90
15483;DHT22;7843;50.330;7.312;2023-02-13T18:20:15;5.20;99.90
15483;DHT22;7843;50.330;7.312;2023-02-13T18:22:42;5.20;99.90
15483;DHT22;7843;50.330;7.312;2023-02-13T18:25:09;5.20;99.90
15483;DHT22;7843;50.330;7.312;2023-02-13T18:27:36;5.10;99.90
15483;DHT22;7843;50.330;7.312;2023-02-13T18:30:04;5.10;99.90
15483;DHT22;7843;50.330;7.312;2023-02-13T18:32:31;5.10;99.90
15483;DHT22;7843;50.330;7.312;2023-02-13T18:34:57;5.10;99.90
15483;DHT22;7843;50.330;7.312;2023-02-13T18:37:24;5.00;99.90
15483;DHT22;7843;50.330;7.312;2023-02-13T18:39:54;5.00;99.90
15483;DHT22;7843;50.330;7.312;2023-02-13T18:42:21;5.00;99.90
15483;DHT22;7843;50.330;7.312;2023-02-13T18:44:48;4.90;99.90
15483;DHT22;7843;50.330;7.312;2023-02-13T18:47:14;4.90;99.90
15483;DHT22;7843;50.330;7.312;2023-02-13T18:49:41;4.90;99.90
15483;DHT22;7843;50.330;7.312;2023-02-13T18:52:08;4.90;99.90
15483;DHT22;7843;50.330;7.312;2023-02-13T18:54:35;4.90;99.90
15483;DHT22;7843;50.330;7.312;2023-02-13T18:57:01;4.90;99.90
15483;DHT22;7843;50.330;7.312;2023-02-13T18:59:28;4.80;99.90
15483;DHT22;7843;50.330;7.312;2023-02-13T19:01:55;4.80;99.90
15483;DHT22;7843;50.330;7.312;2023-02-13T19:04:24;4.80;99.90
15483;DHT22;7843;50.330;7.312;2023-02-13T19:06:50;4.80;99.90
15483;DHT22;7843;50.330;7.312;2023-02-13T19:09:17;4.80;99.90
15483;DHT22;7843;50.330;7.312;2023-02-13T19:11:44;4.70;99.90
15483;DHT22;7843;50.330;7.312;2023-02-13T19:14:12;4.70;99.90
15483;DHT22;7843;50.330;7.312;2023-02-13T19:16:41;4.60;99.90
15483;DHT22;7843;50.330;7.312;2023-02-13T19:19:08;4.50;99.90
15483;DHT22;7843;50.330;7.312;2023-02-13T19:21:37;4.50;99.90
15483;DHT22;7843;50.330;7.312;2023-02-13T19:24:06;4.40;99.90
15483;DHT22;7843;50.330;7.312;2023-02-13T19:26:34;4.40;99.90
15483;DHT22;7843;50.330;7.312;2023-02-13T19:29:02;4.40;99.90
15483;DHT22;7843;50.330;7.312;2023-02-13T19:31:30;4.30;99.90
15483;DHT22;7843;50.330;7.312;2023-02-13T19:33:57;4.30;99.90